createdAt,value
2019-04-29T00:00:18.064Z,82.40
2019-04-29T00:02:47.807Z,82.30
2019-04-29T00:05:19.062Z,83.40
2019-04-29T00:07:48.943Z,82.50
2019-04-29T00:10:20.871Z,82.60
2019-04-29T00:12:50.764Z,82.10
2019-04-29T00:15:22.323Z,82.60
2019-04-29T00:17:53.922Z,82.50
2019-04-29T00:20:38.623Z,82.70
2019-04-29T00:23:08.501Z,83.20
2019-04-29T00:25:38.350Z,83.10
2019-04-29T00:28:08.330Z,83.40
2019-04-29T00:30:38.196Z,83.60
2019-04-29T00:33:08.078Z,84.40
2019-04-29T00:35:37.783Z,84.50
2019-04-29T00:38:20.776Z,84.30
2019-04-29T00:40:54.610Z,84.00
2019-04-29T00:43:28.777Z,84.50
2019-04-29T00:45:58.632Z,84.60
2019-04-29T00:48:28.517Z,84.30
2019-04-29T00:50:58.378Z,84.20
2019-04-29T00:53:28.246Z,84.20
2019-04-29T00:55:59.437Z,83.90
2019-04-29T00:58:30.226Z,84.10
2019-04-29T01:01:00.154Z,84.10
2019-04-29T01:03:29.993Z,84.10
2019-04-29T01:05:59.576Z,84.40
2019-04-29T01:08:29.427Z,84.00
2019-04-29T01:10:58.958Z,85.10
2019-04-29T01:13:28.841Z,85.10
2019-04-29T01:15:59.976Z,85.10
2019-04-29T01:18:29.575Z,84.80
2019-04-29T01:20:59.391Z,85.00
2019-04-29T01:23:28.928Z,85.10
2019-04-29T01:26:00.077Z,85.30
2019-04-29T01:28:37.086Z,85.20
2019-04-29T01:31:09.640Z,85.10
2019-04-29T01:33:43.075Z,85.20
2019-04-29T01:36:17.274Z,85.30
2019-04-29T01:38:49.604Z,85.70
2019-04-29T01:41:30.884Z,85.70
2019-04-29T01:44:02.337Z,85.60
2019-04-29T01:46:32.222Z,85.60
2019-04-29T01:49:02.400Z,85.10
2019-04-29T01:51:32.046Z,85.20
2019-04-29T01:54:01.986Z,85.50
2019-04-29T01:56:31.878Z,85.80
2019-04-29T01:59:01.802Z,85.50
2019-04-29T02:01:31.711Z,85.30
2019-04-29T02:04:01.647Z,86.30
2019-04-29T02:06:31.540Z,87.40
2019-04-29T02:09:01.458Z,87.30
2019-04-29T02:11:31.372Z,86.80
2019-04-29T02:14:01.304Z,86.50
2019-04-29T02:16:31.196Z,85.80
2019-04-29T02:19:01.122Z,86.00
2019-04-29T02:21:31.029Z,85.60
2019-04-29T02:24:08.163Z,85.50
2019-04-29T02:26:37.832Z,85.70
2019-04-29T02:29:07.750Z,85.10
2019-04-29T02:31:45.268Z,85.20
2019-04-29T02:34:14.808Z,85.50
2019-04-29T02:36:44.431Z,85.20
2019-04-29T02:39:18.652Z,85.50
2019-04-29T02:41:52.570Z,85.20
2019-04-29T02:44:22.405Z,85.40
2019-04-29T02:46:52.361Z,85.20
2019-04-29T02:49:22.233Z,85.00
2019-04-29T02:51:53.479Z,85.30
2019-04-29T02:54:25.011Z,85.20
2019-04-29T02:57:02.530Z,85.10
2019-04-29T02:59:39.483Z,84.20
2019-04-29T03:02:19.685Z,84.80
2019-04-29T03:04:51.444Z,85.40
2019-04-29T03:07:21.942Z,85.30
2019-04-29T03:09:51.927Z,84.90
2019-04-29T03:12:22.230Z,85.00
2019-04-29T03:14:52.183Z,84.80
2019-04-29T03:17:22.148Z,86.00
2019-04-29T03:20:08.644Z,85.00
2019-04-29T03:22:39.841Z,85.20
2019-04-29T03:25:09.824Z,84.50
2019-04-29T03:27:40.140Z,85.00
2019-04-29T03:30:10.663Z,84.20
2019-04-29T03:32:40.557Z,85.00
2019-04-29T03:35:10.406Z,84.80
2019-04-29T03:37:40.299Z,85.10
2019-04-29T03:40:12.347Z,85.50
2019-04-29T03:42:42.164Z,86.40
2019-04-29T03:45:12.210Z,86.20
2019-04-29T03:47:42.094Z,85.50
2019-04-29T03:50:12.051Z,85.80
2019-04-29T03:52:41.851Z,85.90
2019-04-29T03:55:11.678Z,85.80
2019-04-29T03:57:41.627Z,86.50
2019-04-29T04:00:13.629Z,86.20
2019-04-29T04:02:45.143Z,85.90
2019-04-29T04:05:16.671Z,85.90
2019-04-29T04:07:48.229Z,86.30
2019-04-29T04:10:18.384Z,85.80
2019-04-29T04:12:48.065Z,86.20
2019-04-29T04:15:18.179Z,86.60
2019-04-29T04:17:52.528Z,86.20
2019-04-29T04:20:22.673Z,86.10
2019-04-29T04:22:52.228Z,86.30
2019-04-29T04:25:22.123Z,85.60
2019-04-29T04:27:51.668Z,85.10
2019-04-29T04:30:22.091Z,85.10
2019-04-29T04:32:52.027Z,85.10
2019-04-29T04:35:21.719Z,85.20
2019-04-29T04:37:51.345Z,85.60
2019-04-29T04:40:26.389Z,85.70
2019-04-29T04:42:56.178Z,85.40
2019-04-29T04:45:25.965Z,85.90
2019-04-29T04:47:55.891Z,85.70
2019-04-29T04:50:25.954Z,85.60
2019-04-29T04:52:55.711Z,86.20
2019-04-29T04:55:27.248Z,85.70
2019-04-29T04:57:56.773Z,85.90
2019-04-29T05:00:28.392Z,86.50
2019-04-29T05:02:58.224Z,86.50
2019-04-29T05:05:29.098Z,86.80
2019-04-29T05:07:58.030Z,86.80
2019-04-29T05:10:27.567Z,89.30
2019-04-29T05:12:58.274Z,87.50
2019-04-29T05:15:27.834Z,87.40
2019-04-29T05:17:57.706Z,87.20
2019-04-29T05:20:27.240Z,86.50
2019-04-29T05:23:00.928Z,86.50
2019-04-29T05:25:31.982Z,86.30
2019-04-29T05:28:01.935Z,85.90
2019-04-29T05:30:31.879Z,86.00
2019-04-29T05:33:01.763Z,86.20
2019-04-29T05:35:33.375Z,86.60
2019-04-29T05:38:08.119Z,86.80
2019-04-29T05:40:39.295Z,86.40
2019-04-29T05:43:10.916Z,86.50
2019-04-29T05:45:52.305Z,86.90
2019-04-29T05:48:23.019Z,86.80
2019-04-29T05:51:09.735Z,86.80
2019-04-29T05:53:47.307Z,86.80
2019-04-29T05:56:15.878Z,87.10
2019-04-29T05:58:45.878Z,87.00
2019-04-29T06:01:17.384Z,86.80
2019-04-29T06:03:47.070Z,87.10
2019-04-29T06:06:17.495Z,86.80
2019-04-29T06:08:47.443Z,86.70
2019-04-29T06:11:19.412Z,87.20
2019-04-29T06:13:49.175Z,87.10
2019-04-29T06:16:20.838Z,87.00
2019-04-29T06:18:59.798Z,87.20
2019-04-29T06:21:22.434Z,86.80
2019-04-29T06:23:54.575Z,87.10
2019-04-29T06:26:23.683Z,86.90
2019-04-29T06:28:53.581Z,86.60
2019-04-29T06:31:23.499Z,86.90
2019-04-29T06:33:53.412Z,87.00
2019-04-29T06:36:24.152Z,87.00
2019-04-29T06:38:54.067Z,86.80
2019-04-29T06:41:23.725Z,86.50
2019-04-29T06:43:56.042Z,87.00
2019-04-29T06:46:25.038Z,86.60
2019-04-29T06:49:09.096Z,86.30
2019-04-29T06:51:26.496Z,86.20
2019-04-29T06:53:56.005Z,86.60
2019-04-29T06:56:25.596Z,86.30
2019-04-29T06:58:55.416Z,86.40
2019-04-29T07:01:24.939Z,86.50
2019-04-29T07:03:59.747Z,86.70
2019-04-29T07:06:27.278Z,86.80
2019-04-29T07:08:57.123Z,87.40
2019-04-29T07:11:26.658Z,87.20
2019-04-29T07:13:57.676Z,87.20
2019-04-29T07:16:31.777Z,86.40
2019-04-29T07:18:59.241Z,86.70
2019-04-29T07:21:28.761Z,86.30
2019-04-29T07:23:58.297Z,86.20
2019-04-29T07:26:28.167Z,86.80
2019-04-29T07:28:57.695Z,87.00
2019-04-29T07:31:28.260Z,86.80
2019-04-29T07:33:59.144Z,86.70
2019-04-29T07:36:29.067Z,87.00
2019-04-29T07:38:58.723Z,86.70
2019-04-29T07:41:28.589Z,86.30
2019-04-29T07:43:58.511Z,86.60
2019-04-29T07:46:30.049Z,86.40
2019-04-29T07:49:01.655Z,86.90
2019-04-29T07:51:45.847Z,87.50
2019-04-29T07:54:17.691Z,87.00
2019-04-29T07:56:47.733Z,87.20
2019-04-29T07:59:17.810Z,87.30
2019-04-29T08:01:47.568Z,86.20
2019-04-29T08:04:17.106Z,86.70
2019-04-29T08:06:47.046Z,86.50
2019-04-29T08:09:17.247Z,86.80
2019-04-29T08:11:47.700Z,87.50
2019-04-29T08:14:19.359Z,87.10
2019-04-29T08:16:49.093Z,87.00
2019-04-29T08:19:19.095Z,86.70
2019-04-29T08:21:49.805Z,86.60
2019-04-29T08:24:20.692Z,85.70
2019-04-29T08:26:50.383Z,86.80
2019-04-29T08:29:20.327Z,86.40
2019-04-29T08:31:51.796Z,87.30
2019-04-29T08:34:23.126Z,85.70
2019-04-29T08:36:53.317Z,85.50
2019-04-29T08:39:25.067Z,86.80
2019-04-29T08:41:54.809Z,86.60
2019-04-29T08:44:45.700Z,86.70
2019-04-29T08:47:30.406Z,87.00
2019-04-29T08:49:57.788Z,86.80
2019-04-29T08:52:27.620Z,87.70
2019-04-29T08:54:57.395Z,87.90
2019-04-29T08:57:27.051Z,88.10
2019-04-29T08:59:56.989Z,88.10
2019-04-29T09:02:34.860Z,88.10
2019-04-29T09:04:58.446Z,87.60
2019-04-29T09:07:29.872Z,88.20
2019-04-29T09:10:01.747Z,87.90
2019-04-29T09:12:31.039Z,88.20
2019-04-29T09:15:00.801Z,88.10
2019-04-29T09:17:30.456Z,88.00
2019-04-29T09:20:00.419Z,88.00
2019-04-29T09:22:31.615Z,88.30
2019-04-29T09:25:12.079Z,88.30
2019-04-29T09:27:44.991Z,88.00
2019-04-29T09:30:16.614Z,87.20
2019-04-29T09:32:46.388Z,86.80
2019-04-29T09:35:16.324Z,86.70
2019-04-29T09:37:46.134Z,85.50
2019-04-29T09:40:17.762Z,86.00
2019-04-29T09:42:58.219Z,85.40
2019-04-29T09:45:29.610Z,84.80
2019-04-29T09:47:59.318Z,84.60
2019-04-29T09:50:28.998Z,83.90
2019-04-29T09:52:58.858Z,83.70
2019-04-29T09:55:28.998Z,81.80
2019-04-29T09:57:58.753Z,82.70
2019-04-29T10:01:05.563Z,82.10
2019-04-29T10:03:56.147Z,82.10
2019-04-29T10:06:36.235Z,81.20
2019-04-29T10:09:09.214Z,80.60
2019-04-29T10:11:39.462Z,81.00
2019-04-29T10:14:09.143Z,80.50
2019-04-29T10:16:40.663Z,80.30
2019-04-29T10:19:12.130Z,80.00
2019-04-29T10:21:42.047Z,79.70
2019-04-29T10:24:14.550Z,78.90
2019-04-29T10:26:43.537Z,79.30
2019-04-29T10:29:18.433Z,78.40
2019-04-29T10:31:46.626Z,78.60
2019-04-29T10:34:16.920Z,78.00
2019-04-29T10:36:46.767Z,77.80
2019-04-29T10:39:31.547Z,78.40
2019-04-29T10:42:03.187Z,77.60
2019-04-29T10:44:51.145Z,77.90
2019-04-29T10:47:34.622Z,78.00
2019-04-29T10:50:10.661Z,77.20
2019-04-29T10:52:40.856Z,77.20
2019-04-29T10:55:12.074Z,77.00
2019-04-29T10:57:44.902Z,76.80
2019-04-29T11:00:31.550Z,75.80
2019-04-29T11:03:01.699Z,75.90
2019-04-29T11:05:34.855Z,76.70
2019-04-29T11:08:06.846Z,75.70
2019-04-29T11:10:36.518Z,76.80
2019-04-29T11:13:06.783Z,76.60
2019-04-29T11:15:37.259Z,76.60
2019-04-29T11:18:07.745Z,76.30
2019-04-29T11:20:37.354Z,76.30
2019-04-29T11:23:24.039Z,76.30
2019-04-29T11:26:00.811Z,75.80
2019-04-29T11:28:32.995Z,74.40
2019-04-29T11:31:03.023Z,75.30
2019-04-29T11:33:41.764Z,75.30
2019-04-29T11:36:16.256Z,75.40
2019-04-29T11:38:46.067Z,74.80
2019-04-29T11:41:19.853Z,73.40
2019-04-29T11:43:51.119Z,73.80
2019-04-29T11:46:21.019Z,74.40
2019-04-29T11:48:52.057Z,73.20
2019-04-29T11:51:29.167Z,73.60
2019-04-29T11:53:58.915Z,74.00
2019-04-29T11:56:28.629Z,73.30
2019-04-29T11:59:16.762Z,74.00
2019-04-29T12:01:51.821Z,73.20
2019-04-29T12:04:21.911Z,72.20
2019-04-29T12:06:56.324Z,73.50
2019-04-29T12:09:30.302Z,72.10
2019-04-29T12:11:58.194Z,71.40
2019-04-29T12:14:37.931Z,72.10
2019-04-29T12:17:21.653Z,71.10
2019-04-29T12:19:53.210Z,70.50
2019-04-29T12:22:30.276Z,70.10
2019-04-29T12:24:54.714Z,71.60
2019-04-29T12:27:24.851Z,69.60
2019-04-29T12:29:59.172Z,70.50
2019-04-29T12:32:27.690Z,70.40
2019-04-29T12:34:59.290Z,70.40
2019-04-29T12:37:34.485Z,70.20
2019-04-29T12:40:24.066Z,70.70
2019-04-29T12:42:55.386Z,70.30
2019-04-29T12:45:41.831Z,68.70
2019-04-29T12:48:24.033Z,67.30
2019-04-29T12:50:43.131Z,69.30
2019-04-29T12:53:12.867Z,66.90
2019-04-29T12:55:49.008Z,66.80
2019-04-29T12:58:19.460Z,69.60
2019-04-29T13:00:55.771Z,68.20
2019-04-29T13:03:31.005Z,68.70
2019-04-29T13:06:02.874Z,69.10
2019-04-29T13:08:43.062Z,69.30
2019-04-29T13:11:14.697Z,67.10
2019-04-29T13:13:44.146Z,66.80
2019-04-29T13:16:21.990Z,66.40
2019-04-29T13:19:13.367Z,66.20
2019-04-29T13:21:41.323Z,67.40
2019-04-29T13:24:22.925Z,66.00
2019-04-29T13:26:43.194Z,64.90
2019-04-29T13:29:26.233Z,65.90
2019-04-29T13:31:44.665Z,64.60
2019-04-29T13:34:24.317Z,65.20
2019-04-29T13:37:06.137Z,64.90
2019-04-29T13:39:37.917Z,66.00
2019-04-29T13:41:57.716Z,64.80
2019-04-29T13:44:22.138Z,64.80
2019-04-29T13:46:56.538Z,64.80
2019-04-29T13:49:28.074Z,64.90
2019-04-29T13:52:02.732Z,65.40
2019-04-29T13:54:32.371Z,65.20
2019-04-29T13:57:09.373Z,64.00
2019-04-29T13:59:42.122Z,63.50
2019-04-29T14:02:22.124Z,62.70
2019-04-29T14:04:51.030Z,62.30
2019-04-29T14:07:22.135Z,62.10
2019-04-29T14:09:52.186Z,62.40
2019-04-29T14:12:47.822Z,63.40
2019-04-29T14:14:58.458Z,64.20
2019-04-29T14:17:31.719Z,64.30
2019-04-29T14:20:00.634Z,64.90
2019-04-29T14:22:30.646Z,65.60
2019-04-29T14:25:00.489Z,64.60
2019-04-29T14:27:30.410Z,63.00
2019-04-29T14:30:03.084Z,64.00
2019-04-29T14:32:36.098Z,63.80
2019-04-29T14:35:11.785Z,64.50
2019-04-29T14:37:38.708Z,63.50
2019-04-29T14:40:09.458Z,62.70
2019-04-29T14:42:40.163Z,62.20
2019-04-29T14:45:14.767Z,56.40
2019-04-29T14:47:46.166Z,61.90
2019-04-29T14:50:20.416Z,62.80
2019-04-29T14:52:50.572Z,62.20
2019-04-29T14:55:20.066Z,60.40
2019-04-29T14:57:50.679Z,59.70
2019-04-29T15:00:28.531Z,59.10
2019-04-29T15:03:00.765Z,58.90
2019-04-29T15:05:32.953Z,58.70
2019-04-29T15:08:01.363Z,59.10
2019-04-29T15:10:32.969Z,59.80
2019-04-29T15:13:20.702Z,59.60
2019-04-29T15:16:04.564Z,59.30
2019-04-29T15:18:50.315Z,61.50
2019-04-29T15:21:31.520Z,61.60
2019-04-29T15:23:52.141Z,61.00
2019-04-29T15:26:22.135Z,61.30
2019-04-29T15:28:54.496Z,61.00
2019-04-29T15:31:25.131Z,61.80
2019-04-29T15:33:55.006Z,61.80
2019-04-29T15:36:24.586Z,62.50
2019-04-29T15:39:08.664Z,60.50
2019-04-29T15:41:31.282Z,60.80
2019-04-29T15:44:07.014Z,60.40
2019-04-29T15:46:34.417Z,60.40
2019-04-29T15:49:00.643Z,59.80
2019-04-29T15:51:30.158Z,60.00
2019-04-29T15:53:59.667Z,58.80
2019-04-29T15:56:33.850Z,58.70
2019-04-29T15:59:08.083Z,58.40
2019-04-29T16:01:32.491Z,58.50
2019-04-29T16:04:03.867Z,58.10
2019-04-29T16:06:41.436Z,57.00
2019-04-29T16:09:18.942Z,57.80
2019-04-29T16:11:50.503Z,57.40
2019-04-29T16:14:24.619Z,57.50
2019-04-29T16:16:54.384Z,58.20
2019-04-29T16:19:24.283Z,58.80
2019-04-29T16:21:54.202Z,59.00
2019-04-29T16:24:26.979Z,59.20
2019-04-29T16:27:15.583Z,59.70
2019-04-29T16:29:46.159Z,59.50
2019-04-29T16:32:24.211Z,60.60
2019-04-29T16:34:54.112Z,59.50
2019-04-29T16:37:25.000Z,59.90
2019-04-29T16:39:59.711Z,61.00
2019-04-29T16:42:34.320Z,59.80
2019-04-29T16:45:11.306Z,60.70
2019-04-29T16:47:37.605Z,60.60
2019-04-29T16:50:07.860Z,60.70
2019-04-29T16:52:44.147Z,61.30
2019-04-29T16:55:11.571Z,60.50
2019-04-29T16:57:41.614Z,60.60
2019-04-29T17:00:13.627Z,61.40
2019-04-29T17:02:44.514Z,62.10
2019-04-29T17:05:14.456Z,61.40
2019-04-29T17:07:44.331Z,61.20
2019-04-29T17:10:23.319Z,61.50
2019-04-29T17:12:53.531Z,60.50
2019-04-29T17:17:55.811Z,61.20
2019-04-29T17:20:25.737Z,61.20
2019-04-29T17:22:55.650Z,61.50
2019-04-29T17:25:26.115Z,60.80
2019-04-29T17:27:57.519Z,61.60
2019-04-29T17:30:28.865Z,61.40
2019-04-29T17:33:05.910Z,62.30
2019-04-29T17:35:16.118Z,61.10
2019-04-29T17:35:37.051Z,62.90
2019-04-29T17:38:06.186Z,62.20
2019-04-29T17:40:37.282Z,60.70
2019-04-29T17:43:24.733Z,61.50
2019-04-29T17:45:56.016Z,60.30
2019-04-29T17:48:48.608Z,60.60
2019-04-29T17:51:15.954Z,60.60
2019-04-29T17:54:02.493Z,57.70
2019-04-29T17:56:36.659Z,59.70
2019-04-29T17:59:29.630Z,60.70
2019-04-29T18:02:18.364Z,59.60
2019-04-29T18:04:49.655Z,60.90
2019-04-29T18:07:35.122Z,59.90
2019-04-29T18:10:29.258Z,59.70
2019-04-29T18:12:56.740Z,59.70
2019-04-29T18:15:40.409Z,60.20
2019-04-29T18:18:07.283Z,60.30
2019-04-29T18:20:36.712Z,60.10
2019-04-29T18:23:23.539Z,59.70
2019-04-29T18:25:54.861Z,60.90
2019-04-29T18:28:24.736Z,61.10
2019-04-29T18:30:57.875Z,61.50
2019-04-29T18:33:30.168Z,60.80
2019-04-29T18:36:04.313Z,60.60
2019-04-29T18:38:30.088Z,60.60
2019-04-29T18:40:59.949Z,60.40
2019-04-29T18:43:29.532Z,60.40
2019-04-29T18:45:59.434Z,62.30
2019-04-29T18:48:29.300Z,62.40
2019-04-29T18:50:59.223Z,62.80
2019-04-29T18:53:29.106Z,63.10
2019-04-29T18:55:59.035Z,61.40
2019-04-29T18:58:29.087Z,63.40
2019-04-29T19:00:58.859Z,62.50
2019-04-29T19:03:33.191Z,63.70
2019-04-29T19:06:10.206Z,64.90
2019-04-29T19:08:36.147Z,64.70
2019-04-29T19:11:06.993Z,65.20
2019-04-29T19:13:36.347Z,65.80
2019-04-29T19:16:10.454Z,68.40
2019-04-29T19:18:37.732Z,66.10
2019-04-29T19:21:07.610Z,64.80
2019-04-29T19:23:37.510Z,65.90
2019-04-29T19:26:07.182Z,65.90
2019-04-29T19:28:37.112Z,66.50
2019-04-29T19:31:09.506Z,66.50
2019-04-29T19:33:39.431Z,66.70
2019-04-29T19:36:17.090Z,67.10
2019-04-29T19:38:43.424Z,67.50
2019-04-29T19:41:16.386Z,68.00
2019-04-29T19:43:48.369Z,67.60
2019-04-29T19:46:22.722Z,67.90
2019-04-29T19:48:47.378Z,67.90
2019-04-29T19:51:18.522Z,68.10
2019-04-29T19:53:49.728Z,67.40
2019-04-29T19:56:23.173Z,68.20
2019-04-29T19:58:51.490Z,68.00
2019-04-29T20:01:29.800Z,68.50
2019-04-29T20:03:57.034Z,69.20
2019-04-29T20:06:30.060Z,68.60
2019-04-29T20:09:01.157Z,68.40
2019-04-29T20:11:33.789Z,69.00
2019-04-29T20:14:05.156Z,69.10
2019-04-29T20:16:43.718Z,69.00
2019-04-29T20:19:22.429Z,68.60
2019-04-29T20:21:52.906Z,68.80
2019-04-29T20:24:23.584Z,68.70
2019-04-29T20:26:54.324Z,69.10
2019-04-29T20:29:27.264Z,69.50
2019-04-29T20:32:02.517Z,69.60
2019-04-29T20:34:32.744Z,69.60
2019-04-29T20:37:03.049Z,70.00
2019-04-29T20:39:33.067Z,70.20
2019-04-29T20:42:06.440Z,70.30
2019-04-29T20:44:36.767Z,70.50
2019-04-29T20:47:19.136Z,70.40
2019-04-29T20:49:39.585Z,71.60
2019-04-29T20:52:13.420Z,71.00
2019-04-29T20:54:42.587Z,71.00
2019-04-29T20:57:20.640Z,71.30
2019-04-29T20:59:48.853Z,71.20
2019-04-29T21:02:29.279Z,71.10
2019-04-29T21:04:47.739Z,71.50
2019-04-29T21:07:23.639Z,71.60
2019-04-29T21:09:49.462Z,71.00
2019-04-29T21:12:38.181Z,71.90
2019-04-29T21:15:18.511Z,71.90
2019-04-29T21:17:48.272Z,71.90
2019-04-29T21:20:18.112Z,71.90
2019-04-29T21:22:48.034Z,71.90
2019-04-29T21:25:17.955Z,72.10
2019-04-29T21:27:48.580Z,71.90
2019-04-29T21:30:18.622Z,72.10
2019-04-29T21:32:48.510Z,72.30
2019-04-29T21:35:26.977Z,72.30
2019-04-29T21:38:17.779Z,72.60
2019-04-29T21:40:57.128Z,72.30
2019-04-29T21:43:28.372Z,72.50
2019-04-29T21:45:59.420Z,72.60
2019-04-29T21:48:33.519Z,72.50
2019-04-29T21:51:00.921Z,72.60
2019-04-29T21:53:31.629Z,72.70
2019-04-29T21:56:06.263Z,72.70
2019-04-29T21:58:34.137Z,72.70
2019-04-29T22:01:05.465Z,72.90
2019-04-29T22:03:35.159Z,73.00
2019-04-29T22:06:05.153Z,73.00
2019-04-29T22:08:35.503Z,73.00
2019-04-29T22:11:07.028Z,73.10
2019-04-29T22:13:39.064Z,72.90
2019-04-29T22:16:11.383Z,72.90
2019-04-29T22:18:39.807Z,73.10
2019-04-29T22:21:10.227Z,73.20
2019-04-29T22:23:44.415Z,73.10
2019-04-29T22:26:15.778Z,73.30
2019-04-29T22:28:46.006Z,72.80
2019-04-29T22:31:18.224Z,73.30
2019-04-29T22:33:48.927Z,73.50
2019-04-29T22:36:18.810Z,73.40
2019-04-29T22:38:52.001Z,73.60
2019-04-29T22:44:21.893Z,73.40
2019-04-29T22:46:52.405Z,73.50
2019-04-29T22:49:27.283Z,73.70
2019-04-29T22:51:57.105Z,73.70
2019-04-29T22:54:25.491Z,73.80
2019-04-29T22:56:56.702Z,73.80
2019-04-29T22:59:27.475Z,74.00
2019-04-29T23:01:57.229Z,73.60
2019-04-29T23:04:27.132Z,74.30
2019-04-29T23:06:57.058Z,74.10
2019-04-29T23:09:26.951Z,74.20
2019-04-29T23:11:56.866Z,74.30
2019-04-29T23:14:26.771Z,74.40
2019-04-29T23:16:56.698Z,74.60
2019-04-29T23:19:26.608Z,74.80
2019-04-29T23:22:10.688Z,74.80
2019-04-29T23:24:51.462Z,74.70
2019-04-29T23:27:19.710Z,75.20
2019-04-29T23:29:49.678Z,76.10
2019-04-29T23:32:19.773Z,76.30
2019-04-29T23:34:49.426Z,75.50
2019-04-29T23:37:19.470Z,75.30
2019-04-29T23:39:50.491Z,75.10
2019-04-29T23:42:20.612Z,75.40
2019-04-29T23:44:50.326Z,75.20
2019-04-29T23:47:19.865Z,75.60
2019-04-29T23:49:49.744Z,75.30
2019-04-29T23:52:19.350Z,75.40
2019-04-29T23:54:49.163Z,75.50
2019-04-29T23:57:29.381Z,75.70
